sensor_id;sensor_type;location;lat;lon;timestamp;pressure;altitude;pressure_sealevel;temperature;humidity
39487;BME280;25173;50.430;18.926;2023-05-19T00:02:10;99190.91;;;14.23;58.43
39487;BME280;25173;50.430;18.926;2023-05-19T00:05:32;99189.00;;;14.23;58.34
39487;BME280;25173;50.430;18.926;2023-05-19T00:09:03;99195.28;;;14.24;58.30
39487;BME280;25173;50.430;18.926;2023-05-19T00:12:15;99191.75;;;14.18;58.61
39487;BME280;25173;50.430;18.926;2023-05-19T00:15:26;99177.78;;;14.15;58.64
39487;BME280;25173;50.430;18.926;2023-05-19T00:18:28;99178.31;;;14.17;58.88
39487;BME280;25173;50.430;18.926;2023-05-19T00:21:32;99179.97;;;14.13;58.87
39487;BME280;25173;50.430;18.926;2023-05-19T00:25:19;99179.66;;;14.09;59.02
39487;BME280;25173;50.430;18.926;2023-05-19T00:28:35;99168.19;;;14.07;59.10
39487;BME280;25173;50.430;18.926;2023-05-19T00:31:55;99167.34;;;14.07;59.34
39487;BME280;25173;50.430;18.926;2023-05-19T00:35:14;99167.06;;;14.08;59.36
39487;BME280;25173;50.430;18.926;2023-05-19T00:38:24;99168.19;;;14.07;59.38
39487;BME280;25173;50.430;18.926;2023-05-19T00:41:25;99173.09;;;14.05;59.52
39487;BME280;25173;50.430;18.926;2023-05-19T00:44:25;99174.47;;;14.08;59.67
39487;BME280;25173;50.430;18.926;2023-05-19T00:47:44;99175.56;;;14.12;59.43
39487;BME280;25173;50.430;18.926;2023-05-19T00:51:04;99173.66;;;14.12;59.71
39487;BME280;25173;50.430;18.926;2023-05-19T00:54:24;99167.34;;;14.12;59.64
39487;BME280;25173;50.430;18.926;2023-05-19T00:57:43;99166.53;;;14.11;59.64
39487;BME280;25173;50.430;18.926;2023-05-19T01:01:04;99169.28;;;14.06;59.62
39487;BME280;25173;50.430;18.926;2023-05-19T01:04:25;99156.66;;;14.00;59.76
39487;BME280;25173;50.430;18.926;2023-05-19T01:07:44;99152.81;;;14.01;59.94
39487;BME280;25173;50.430;18.926;2023-05-19T01:11:05;99148.97;;;14.02;59.92
39487;BME280;25173;50.430;18.926;2023-05-19T01:14:25;99153.63;;;14.02;59.94
39487;BME280;25173;50.430;18.926;2023-05-19T01:17:53;99149.53;;;14.04;60.14
39487;BME280;25173;50.430;18.926;2023-05-19T01:25:08;99151.97;;;14.00;60.05
39487;BME280;25173;50.430;18.926;2023-05-19T01:32:27;99131.97;;;13.95;60.31
39487;BME280;25173;50.430;18.926;2023-05-19T01:35:49;99144.34;;;13.92;60.33
39487;BME280;25173;50.430;18.926;2023-05-19T01:39:10;99135.00;;;13.93;60.57
39487;BME280;25173;50.430;18.926;2023-05-19T01:42:30;99138.84;;;13.92;60.41
39487;BME280;25173;50.430;18.926;2023-05-19T01:45:57;99136.91;;;13.88;60.30
39487;BME280;25173;50.430;18.926;2023-05-19T01:49:17;99134.16;;;13.88;60.38
39487;BME280;25173;50.430;18.926;2023-05-19T01:52:37;99133.34;;;13.82;60.39
39487;BME280;25173;50.430;18.926;2023-05-19T01:55:57;99135.00;;;13.83;60.73
39487;BME280;25173;50.430;18.926;2023-05-19T02:07:00;99127.03;;;13.87;60.77
39487;BME280;25173;50.430;18.926;2023-05-19T02:10:09;99113.66;;;13.85;60.88
39487;BME280;25173;50.430;18.926;2023-05-19T02:13:12;99118.56;;;13.83;60.92
39487;BME280;25173;50.430;18.926;2023-05-19T02:16:14;99111.69;;;13.86;60.99
39487;BME280;25173;50.430;18.926;2023-05-19T02:19:28;99111.44;;;13.87;60.97
39487;BME280;25173;50.430;18.926;2023-05-19T02:22:30;99108.97;;;13.86;60.94
39487;BME280;25173;50.430;18.926;2023-05-19T02:25:31;99102.13;;;13.83;60.85
39487;BME280;25173;50.430;18.926;2023-05-19T02:28:46;99101.31;;;13.83;60.86
39487;BME280;25173;50.430;18.926;2023-05-19T02:31:47;99103.75;;;13.79;61.01
39487;BME280;25173;50.430;18.926;2023-05-19T02:34:48;99093.09;;;13.78;61.07
39487;BME280;25173;50.430;18.926;2023-05-19T02:37:48;99099.09;;;13.75;60.87
39487;BME280;25173;50.430;18.926;2023-05-19T02:40:50;99094.97;;;13.72;61.12
39487;BME280;25173;50.430;18.926;2023-05-19T02:43:52;99099.38;;;13.68;61.10
39487;BME280;25173;50.430;18.926;2023-05-19T02:47:06;99090.88;;;13.65;61.25
39487;BME280;25173;50.430;18.926;2023-05-19T02:50:07;99081.56;;;13.60;61.18
39487;BME280;25173;50.430;18.926;2023-05-19T02:53:08;99084.31;;;13.55;61.46
39487;BME280;25173;50.430;18.926;2023-05-19T02:56:09;99088.13;;;13.54;61.50
39487;BME280;25173;50.430;18.926;2023-05-19T02:59:10;99091.69;;;13.55;61.53
39487;BME280;25173;50.430;18.926;2023-05-19T03:02:29;99100.72;;;13.55;61.56
39487;BME280;25173;50.430;18.926;2023-05-19T03:05:51;99101.81;;;13.54;61.61
39487;BME280;25173;50.430;18.926;2023-05-19T03:09:14;99106.19;;;13.55;61.69
39487;BME280;25173;50.430;18.926;2023-05-19T03:12:33;99114.94;;;13.57;61.70
39487;BME280;25173;50.430;18.926;2023-05-19T03:15:53;99116.59;;;13.58;61.78
39487;BME280;25173;50.430;18.926;2023-05-19T03:19:14;99122.38;;;13.62;61.78
39487;BME280;25173;50.430;18.926;2023-05-19T03:22:34;99117.16;;;13.66;61.77
39487;BME280;25173;50.430;18.926;2023-05-19T03:25:34;99118.28;;;13.70;61.75
39487;BME280;25173;50.430;18.926;2023-05-19T03:28:42;99107.84;;;13.67;61.86
39487;BME280;25173;50.430;18.926;2023-05-19T03:31:43;99110.31;;;13.63;61.80
39487;BME280;25173;50.430;18.926;2023-05-19T03:34:47;99117.16;;;13.66;61.87
39487;BME280;25173;50.430;18.926;2023-05-19T03:37:49;99114.72;;;13.69;61.98
39487;BME280;25173;50.430;18.926;2023-05-19T03:40:50;99115.53;;;13.70;61.91
39487;BME280;25173;50.430;18.926;2023-05-19T03:43:51;99112.25;;;13.73;61.81
39487;BME280;25173;50.430;18.926;2023-05-19T03:46:51;99120.47;;;13.78;61.87
39487;BME280;25173;50.430;18.926;2023-05-19T03:50:21;99113.34;;;13.87;62.03
39487;BME280;25173;50.430;18.926;2023-05-19T03:53:28;99113.38;;;13.97;61.89
39487;BME280;25173;50.430;18.926;2023-05-19T03:56:29;99120.50;;;14.03;61.82
39487;BME280;25173;50.430;18.926;2023-05-19T03:59:30;99110.91;;;14.06;61.78
39487;BME280;25173;50.430;18.926;2023-05-19T04:02:46;99119.97;;;14.06;61.70
39487;BME280;25173;50.430;18.926;2023-05-19T04:06:07;99117.75;;;14.08;61.82
39487;BME280;25173;50.430;18.926;2023-05-19T04:09:28;99118.31;;;14.15;61.69
39487;BME280;25173;50.430;18.926;2023-05-19T04:12:49;99113.63;;;14.16;61.57
39487;BME280;25173;50.430;18.926;2023-05-19T04:16:09;99113.13;;;14.14;61.62
39487;BME280;25173;50.430;18.926;2023-05-19T04:19:28;99116.66;;;14.19;61.36
39487;BME280;25173;50.430;18.926;2023-05-19T04:22:47;99126.28;;;14.22;61.48
39487;BME280;25173;50.430;18.926;2023-05-19T04:26:06;99130.38;;;14.34;61.58
39487;BME280;25173;50.430;18.926;2023-05-19T04:29:26;99130.66;;;14.43;61.47
39487;BME280;25173;50.430;18.926;2023-05-19T04:32:29;99129.53;;;14.54;61.44
39487;BME280;25173;50.430;18.926;2023-05-19T04:35:31;99136.66;;;14.60;61.21
39487;BME280;25173;50.430;18.926;2023-05-19T04:38:38;99132.03;;;14.66;61.06
39487;BME280;25173;50.430;18.926;2023-05-19T04:41:44;99127.59;;;14.70;61.23
39487;BME280;25173;50.430;18.926;2023-05-19T04:44:46;99122.66;;;14.77;61.08
39487;BME280;25173;50.430;18.926;2023-05-19T04:47:49;99115.50;;;14.86;61.21
39487;BME280;25173;50.430;18.926;2023-05-19T04:50:49;99120.97;;;14.96;61.06
39487;BME280;25173;50.430;18.926;2023-05-19T04:53:51;99123.41;;;15.08;61.11
39487;BME280;25173;50.430;18.926;2023-05-19T04:56:53;99131.84;;;15.22;60.83
39487;BME280;25173;50.430;18.926;2023-05-19T04:59:54;99132.91;;;15.31;60.82
39487;BME280;25173;50.430;18.926;2023-05-19T05:03:01;99130.13;;;15.41;60.58
39487;BME280;25173;50.430;18.926;2023-05-19T05:06:06;99133.38;;;15.53;60.60
39487;BME280;25173;50.430;18.926;2023-05-19T05:09:07;99133.63;;;15.62;60.32
39487;BME280;25173;50.430;18.926;2023-05-19T05:12:26;99141.78;;;15.72;60.40
39487;BME280;25173;50.430;18.926;2023-05-19T05:15:46;99135.47;;;15.76;60.05
39487;BME280;25173;50.430;18.926;2023-05-19T05:19:06;99146.94;;;15.83;60.11
39487;BME280;25173;50.430;18.926;2023-05-19T05:22:26;99143.00;;;15.95;59.76
39487;BME280;25173;50.430;18.926;2023-05-19T05:25:46;99132.50;;;16.07;59.82
39487;BME280;25173;50.430;18.926;2023-05-19T05:29:07;99137.41;;;16.15;59.59
39487;BME280;25173;50.430;18.926;2023-05-19T05:32:08;99140.91;;;16.20;59.38
39487;BME280;25173;50.430;18.926;2023-05-19T05:35:09;99133.50;;;16.16;59.40
39487;BME280;25173;50.430;18.926;2023-05-19T05:38:26;99137.13;;;16.11;59.53
39487;BME280;25173;50.430;18.926;2023-05-19T05:41:27;99135.75;;;16.14;59.85
39487;BME280;25173;50.430;18.926;2023-05-19T05:44:46;99138.66;;;16.27;59.87
39487;BME280;25173;50.430;18.926;2023-05-19T05:47:47;99137.44;;;16.39;59.50
39487;BME280;25173;50.430;18.926;2023-05-19T05:50:49;99142.88;;;16.49;59.32
39487;BME280;25173;50.430;18.926;2023-05-19T05:53:54;99139.19;;;16.63;59.22
39487;BME280;25173;50.430;18.926;2023-05-19T05:57:00;99144.63;;;16.74;59.01
39487;BME280;25173;50.430;18.926;2023-05-19T06:00:02;99141.25;;;16.77;58.50
39487;BME280;25173;50.430;18.926;2023-05-19T06:03:15;99145.72;;;16.73;58.55
39487;BME280;25173;50.430;18.926;2023-05-19T06:06:16;99147.31;;;16.79;58.74
39487;BME280;25173;50.430;18.926;2023-05-19T06:09:17;99140.91;;;16.83;58.73
39487;BME280;25173;50.430;18.926;2023-05-19T06:12:36;99136.34;;;16.97;58.37
39487;BME280;25173;50.430;18.926;2023-05-19T06:15:56;99137.44;;;17.01;58.34
39487;BME280;25173;50.430;18.926;2023-05-19T06:19:05;99142.03;;;17.06;58.07
39487;BME280;25173;50.430;18.926;2023-05-19T06:22:05;99166.94;;;16.96;58.02
39487;BME280;25173;50.430;18.926;2023-05-19T06:25:07;99162.75;;;17.03;58.14
39487;BME280;25173;50.430;18.926;2023-05-19T06:28:09;99164.78;;;17.17;57.89
39487;BME280;25173;50.430;18.926;2023-05-19T06:31:11;99155.06;;;17.24;57.85
39487;BME280;25173;50.430;18.926;2023-05-19T06:34:44;99164.06;;;17.30;57.57
39487;BME280;25173;50.430;18.926;2023-05-19T06:38:03;99162.59;;;17.37;57.30
39487;BME280;25173;50.430;18.926;2023-05-19T06:41:22;99163.06;;;17.44;57.32
39487;BME280;25173;50.430;18.926;2023-05-19T06:44:43;99167.94;;;17.53;57.04
39487;BME280;25173;50.430;18.926;2023-05-19T06:48:04;99159.09;;;17.56;56.72
39487;BME280;25173;50.430;18.926;2023-05-19T06:51:24;99166.94;;;17.43;56.97
39487;BME280;25173;50.430;18.926;2023-05-19T06:54:28;99164.25;;;17.38;57.32
39487;BME280;25173;50.430;18.926;2023-05-19T06:57:30;99166.38;;;17.46;57.23
39487;BME280;25173;50.430;18.926;2023-05-19T07:00:31;99160.13;;;17.60;57.08
39487;BME280;25173;50.430;18.926;2023-05-19T07:03:32;99152.34;;;17.67;57.04
39487;BME280;25173;50.430;18.926;2023-05-19T07:06:33;99158.91;;;17.71;56.85
39487;BME280;25173;50.430;18.926;2023-05-19T07:09:34;99150.50;;;17.81;56.55
39487;BME280;25173;50.430;18.926;2023-05-19T07:12:55;99143.28;;;17.85;56.73
39487;BME280;25173;50.430;18.926;2023-05-19T07:16:16;99148.47;;;17.87;56.76
39487;BME280;25173;50.430;18.926;2023-05-19T07:19:37;99149.38;;;18.01;56.84
39487;BME280;25173;50.430;18.926;2023-05-19T07:22:56;99135.88;;;18.18;56.03
39487;BME280;25173;50.430;18.926;2023-05-19T07:25:58;99134.59;;;18.29;56.02
39487;BME280;25173;50.430;18.926;2023-05-19T07:28:58;99144.56;;;18.44;55.51
39487;BME280;25173;50.430;18.926;2023-05-19T07:32:17;99144.38;;;18.54;55.67
39487;BME280;25173;50.430;18.926;2023-05-19T07:35:17;99152.97;;;18.52;55.38
39487;BME280;25173;50.430;18.926;2023-05-19T07:38:18;99149.34;;;18.57;55.30
39487;BME280;25173;50.430;18.926;2023-05-19T07:41:18;99159.72;;;18.79;55.41
39487;BME280;25173;50.430;18.926;2023-05-19T07:44:19;99165.69;;;18.99;54.57
39487;BME280;25173;50.430;18.926;2023-05-19T07:47:38;99157.50;;;19.22;54.55
39487;BME280;25173;50.430;18.926;2023-05-19T07:50:39;99148.19;;;19.45;54.19
39487;BME280;25173;50.430;18.926;2023-05-19T07:53:40;99153.50;;;19.42;53.92
39487;BME280;25173;50.430;18.926;2023-05-19T07:57:00;99149.97;;;19.41;54.15
39487;BME280;25173;50.430;18.926;2023-05-19T08:00:17;99151.41;;;19.52;53.69
39487;BME280;25173;50.430;18.926;2023-05-19T08:03:37;99156.31;;;19.69;53.77
39487;BME280;25173;50.430;18.926;2023-05-19T08:06:38;99152.38;;;19.84;53.18
39487;BME280;25173;50.430;18.926;2023-05-19T08:09:39;99156.41;;;19.64;52.92
39487;BME280;25173;50.430;18.926;2023-05-19T08:12:40;99168.09;;;19.61;53.23
39487;BME280;25173;50.430;18.926;2023-05-19T08:16:00;99162.75;;;19.78;53.37
39487;BME280;25173;50.430;18.926;2023-05-19T08:19:00;99154.88;;;20.07;53.43
39487;BME280;25173;50.430;18.926;2023-05-19T08:22:04;99168.03;;;20.24;52.89
39487;BME280;25173;50.430;18.926;2023-05-19T08:25:04;99169.47;;;20.35;52.35
39487;BME280;25173;50.430;18.926;2023-05-19T08:28:06;99171.59;;;20.38;51.93
39487;BME280;25173;50.430;18.926;2023-05-19T08:31:25;99171.78;;;20.06;51.82
39487;BME280;25173;50.430;18.926;2023-05-19T08:34:25;99171.44;;;19.71;52.33
39487;BME280;25173;50.430;18.926;2023-05-19T08:37:26;99172.28;;;19.58;52.73
39487;BME280;25173;50.430;18.926;2023-05-19T08:40:26;99180.34;;;19.41;52.53
39487;BME280;25173;50.430;18.926;2023-05-19T08:43:30;99186.78;;;19.23;52.76
39487;BME280;25173;50.430;18.926;2023-05-19T08:46:31;99176.56;;;19.23;52.97
39487;BME280;25173;50.430;18.926;2023-05-19T08:49:34;99177.78;;;19.31;52.97
39487;BME280;25173;50.430;18.926;2023-05-19T08:53:12;99170.72;;;19.38;52.44
39487;BME280;25173;50.430;18.926;2023-05-19T08:56:19;99177.66;;;19.36;52.55
39487;BME280;25173;50.430;18.926;2023-05-19T08:59:21;99174.91;;;19.36;52.40
39487;BME280;25173;50.430;18.926;2023-05-19T09:02:40;99169.31;;;19.41;52.70
39487;BME280;25173;50.430;18.926;2023-05-19T09:05:41;99170.88;;;19.47;52.44
39487;BME280;25173;50.430;18.926;2023-05-19T09:08:42;99168.66;;;19.44;52.60
39487;BME280;25173;50.430;18.926;2023-05-19T09:11:46;99173.31;;;19.49;52.28
39487;BME280;25173;50.430;18.926;2023-05-19T09:14:47;99172.56;;;19.57;52.59
39487;BME280;25173;50.430;18.926;2023-05-19T09:17:48;99175.13;;;19.67;52.36
39487;BME280;25173;50.430;18.926;2023-05-19T09:20:48;99170.31;;;19.72;52.08
39487;BME280;25173;50.430;18.926;2023-05-19T09:23:49;99170.81;;;19.74;51.94
39487;BME280;25173;50.430;18.926;2023-05-19T09:26:50;99172.66;;;19.79;51.83
39487;BME280;25173;50.430;18.926;2023-05-19T09:29:50;99172.13;;;19.91;52.19
39487;BME280;25173;50.430;18.926;2023-05-19T09:33:09;99166.13;;;20.11;52.05
39487;BME280;25173;50.430;18.926;2023-05-19T09:36:29;99167.09;;;20.29;51.95
39487;BME280;25173;50.430;18.926;2023-05-19T09:39:49;99175.50;;;20.37;51.29
39487;BME280;25173;50.430;18.926;2023-05-19T09:43:10;99173.88;;;20.36;51.28
39487;BME280;25173;50.430;18.926;2023-05-19T09:46:30;99169.06;;;20.28;51.15
39487;BME280;25173;50.430;18.926;2023-05-19T09:49:31;99170.72;;;20.15;51.23
39487;BME280;25173;50.430;18.926;2023-05-19T09:52:50;99175.06;;;20.08;51.35
39487;BME280;25173;50.430;18.926;2023-05-19T09:55:55;99180.19;;;20.01;51.60
39487;BME280;25173;50.430;18.926;2023-05-19T09:58:58;99170.69;;;19.93;51.51
39487;BME280;25173;50.430;18.926;2023-05-19T10:02:00;99175.81;;;20.00;51.54
39487;BME280;25173;50.430;18.926;2023-05-19T10:05:20;99172.31;;;20.08;51.92
39487;BME280;25173;50.430;18.926;2023-05-19T10:08:21;99179.31;;;19.92;51.62
39487;BME280;25173;50.430;18.926;2023-05-19T10:11:23;99167.22;;;19.88;51.96
39487;BME280;25173;50.430;18.926;2023-05-19T10:14:40;99172.06;;;19.68;51.87
39487;BME280;25173;50.430;18.926;2023-05-19T10:17:42;99176.47;;;19.69;52.27
39487;BME280;25173;50.430;18.926;2023-05-19T10:20:43;99171.81;;;19.78;52.18
39487;BME280;25173;50.430;18.926;2023-05-19T10:23:44;99161.53;;;19.70;52.22
39487;BME280;25173;50.430;18.926;2023-05-19T10:26:57;99164.44;;;19.88;52.26
39487;BME280;25173;50.430;18.926;2023-05-19T10:30:25;99161.13;;;20.13;51.74
39487;BME280;25173;50.430;18.926;2023-05-19T10:37:23;99159.38;;;20.62;51.10
39487;BME280;25173;50.430;18.926;2023-05-19T10:44:19;99157.56;;;21.10;50.48
39487;BME280;25173;50.430;18.926;2023-05-19T10:47:26;99147.72;;;21.35;50.19
39487;BME280;25173;50.430;18.926;2023-05-19T10:50:34;99145.03;;;21.61;50.34
39487;BME280;25173;50.430;18.926;2023-05-19T10:53:40;99147.03;;;21.69;49.18
39487;BME280;25173;50.430;18.926;2023-05-19T10:56:55;99149.13;;;21.72;49.50
39487;BME280;25173;50.430;18.926;2023-05-19T10:59:56;99150.47;;;21.75;49.56
39487;BME280;25173;50.430;18.926;2023-05-19T11:03:14;99152.69;;;21.64;49.19
39487;BME280;25173;50.430;18.926;2023-05-19T11:09:18;99150.75;;;21.56;49.61
39487;BME280;25173;50.430;18.926;2023-05-19T11:12:19;99153.38;;;21.61;49.58
39487;BME280;25173;50.430;18.926;2023-05-19T11:15:25;99153.06;;;21.62;49.43
39487;BME280;25173;50.430;18.926;2023-05-19T11:18:26;99148.31;;;21.63;49.54
39487;BME280;25173;50.430;18.926;2023-05-19T11:21:46;99142.13;;;21.66;49.44
39487;BME280;25173;50.430;18.926;2023-05-19T11:24:49;99147.97;;;21.64;49.56
39487;BME280;25173;50.430;18.926;2023-05-19T11:28:12;99155.19;;;21.74;49.86
39487;BME280;25173;50.430;18.926;2023-05-19T11:31:14;99149.50;;;21.88;49.95
39487;BME280;25173;50.430;18.926;2023-05-19T11:34:15;99154.56;;;21.86;49.50
39487;BME280;25173;50.430;18.926;2023-05-19T11:37:16;99158.13;;;21.78;49.15
39487;BME280;25173;50.430;18.926;2023-05-19T11:40:17;99154.22;;;21.70;49.68
39487;BME280;25173;50.430;18.926;2023-05-19T11:43:18;99153.06;;;21.71;49.38
39487;BME280;25173;50.430;18.926;2023-05-19T11:46:21;99161.06;;;21.81;49.27
39487;BME280;25173;50.430;18.926;2023-05-19T11:49:22;99152.41;;;21.74;49.14
39487;BME280;25173;50.430;18.926;2023-05-19T11:52:44;99151.44;;;21.70;49.62
39487;BME280;25173;50.430;18.926;2023-05-19T11:56:05;99145.38;;;21.68;49.36
39487;BME280;25173;50.430;18.926;2023-05-19T11:59:31;99142.63;;;21.77;49.12
39487;BME280;25173;50.430;18.926;2023-05-19T12:02:51;99149.34;;;21.84;49.09
39487;BME280;25173;50.430;18.926;2023-05-19T12:06:10;99137.25;;;21.89;49.28
39487;BME280;25173;50.430;18.926;2023-05-19T12:09:31;99151.31;;;21.92;48.95
39487;BME280;25173;50.430;18.926;2023-05-19T12:12:32;99147.75;;;22.00;48.91
39487;BME280;25173;50.430;18.926;2023-05-19T12:15:34;99141.38;;;22.17;49.04
39487;BME280;25173;50.430;18.926;2023-05-19T12:18:36;99143.66;;;22.24;49.06
39487;BME280;25173;50.430;18.926;2023-05-19T12:21:37;99142.53;;;22.25;48.38
39487;BME280;25173;50.430;18.926;2023-05-19T12:24:38;99130.47;;;22.29;48.73
39487;BME280;25173;50.430;18.926;2023-05-19T12:27:41;99140.56;;;22.17;48.70
39487;BME280;25173;50.430;18.926;2023-05-19T12:31:01;99135.84;;;22.17;48.69
39487;BME280;25173;50.430;18.926;2023-05-19T12:34:20;99131.28;;;22.13;48.55
39487;BME280;25173;50.430;18.926;2023-05-19T12:37:27;99129.31;;;22.22;49.00
39487;BME280;25173;50.430;18.926;2023-05-19T12:40:29;99135.50;;;22.36;48.94
39487;BME280;25173;50.430;18.926;2023-05-19T12:43:30;99126.50;;;22.48;48.28
39487;BME280;25173;50.430;18.926;2023-05-19T12:46:32;99129.28;;;22.56;48.33
39487;BME280;25173;50.430;18.926;2023-05-19T12:49:32;99127.94;;;22.62;48.09
39487;BME280;25173;50.430;18.926;2023-05-19T12:52:41;99133.34;;;22.67;48.25
39487;BME280;25173;50.430;18.926;2023-05-19T12:55:43;99136.78;;;22.81;48.11
39487;BME280;25173;50.430;18.926;2023-05-19T12:58:44;99132.00;;;22.91;48.37
39487;BME280;25173;50.430;18.926;2023-05-19T13:01:45;99130.72;;;22.88;48.03
39487;BME280;25173;50.430;18.926;2023-05-19T13:04:45;99134.16;;;22.76;47.59
39487;BME280;25173;50.430;18.926;2023-05-19T13:07:58;99126.31;;;22.70;48.03
39487;BME280;25173;50.430;18.926;2023-05-19T13:10:59;99123.72;;;22.56;47.94
39487;BME280;25173;50.430;18.926;2023-05-19T13:13:59;99130.44;;;22.38;47.76
39487;BME280;25173;50.430;18.926;2023-05-19T13:17:00;99133.88;;;22.35;48.53
39487;BME280;25173;50.430;18.926;2023-05-19T13:20:01;99127.81;;;22.33;48.52
39487;BME280;25173;50.430;18.926;2023-05-19T13:23:01;99125.72;;;22.30;48.45
39487;BME280;25173;50.430;18.926;2023-05-19T13:26:21;99126.03;;;22.28;48.36
39487;BME280;25173;50.430;18.926;2023-05-19T13:29:41;99122.78;;;22.26;48.72
39487;BME280;25173;50.430;18.926;2023-05-19T13:33:01;99120.19;;;22.21;48.63
39487;BME280;25173;50.430;18.926;2023-05-19T13:36:20;99114.94;;;22.20;48.77
39487;BME280;25173;50.430;18.926;2023-05-19T13:39:39;99124.41;;;22.19;48.62
39487;BME280;25173;50.430;18.926;2023-05-19T13:42:40;99120.50;;;22.20;48.52
39487;BME280;25173;50.430;18.926;2023-05-19T13:45:41;99122.78;;;22.18;48.47
39487;BME280;25173;50.430;18.926;2023-05-19T13:48:43;99114.94;;;22.11;48.73
39487;BME280;25173;50.430;18.926;2023-05-19T13:51:44;99103.19;;;21.97;48.49
39487;BME280;25173;50.430;18.926;2023-05-19T13:54:45;99107.75;;;21.84;48.90
39487;BME280;25173;50.430;18.926;2023-05-19T13:57:45;99101.19;;;21.80;49.07
39487;BME280;25173;50.430;18.926;2023-05-19T14:00:46;99107.56;;;21.81;49.55
39487;BME280;25173;50.430;18.926;2023-05-19T14:03:47;99101.84;;;21.77;49.07
39487;BME280;25173;50.430;18.926;2023-05-19T14:06:47;99105.44;;;21.69;49.08
39487;BME280;25173;50.430;18.926;2023-05-19T14:09:48;99106.88;;;21.66;49.42
39487;BME280;25173;50.430;18.926;2023-05-19T14:12:50;99101.50;;;21.61;49.37
39487;BME280;25173;50.430;18.926;2023-05-19T14:15:52;99109.28;;;21.51;49.13
39487;BME280;25173;50.430;18.926;2023-05-19T14:18:53;99110.94;;;21.52;49.67
39487;BME280;25173;50.430;18.926;2023-05-19T14:21:55;99108.34;;;21.55;49.48
39487;BME280;25173;50.430;18.926;2023-05-19T14:24:56;99116.31;;;21.48;49.51
39487;BME280;25173;50.430;18.926;2023-05-19T14:27:56;99121.03;;;21.39;49.68
39487;BME280;25173;50.430;18.926;2023-05-19T14:30:57;99121.34;;;21.38;49.74
39487;BME280;25173;50.430;18.926;2023-05-19T14:33:57;99125.91;;;21.34;49.74
39487;BME280;25173;50.430;18.926;2023-05-19T14:36:58;99123.09;;;21.25;49.71
39487;BME280;25173;50.430;18.926;2023-05-19T14:39:59;99115.72;;;21.20;49.97
39487;BME280;25173;50.430;18.926;2023-05-19T14:42:59;99118.19;;;21.22;50.13
39487;BME280;25173;50.430;18.926;2023-05-19T14:46:00;99121.47;;;21.24;49.84
39487;BME280;25173;50.430;18.926;2023-05-19T14:49:01;99124.03;;;21.20;50.48
39487;BME280;25173;50.430;18.926;2023-05-19T14:52:02;99129.09;;;21.18;50.16
39487;BME280;25173;50.430;18.926;2023-05-19T14:55:03;99128.22;;;21.09;50.45
39487;BME280;25173;50.430;18.926;2023-05-19T14:58:04;99130.78;;;21.06;50.69
39487;BME280;25173;50.430;18.926;2023-05-19T15:01:05;99137.00;;;21.03;50.58
39487;BME280;25173;50.430;18.926;2023-05-19T15:04:05;99129.25;;;20.91;51.01
39487;BME280;25173;50.430;18.926;2023-05-19T15:07:06;99133.44;;;20.80;51.27
39487;BME280;25173;50.430;18.926;2023-05-19T15:10:06;99129.00;;;20.70;50.96
39487;BME280;25173;50.430;18.926;2023-05-19T15:13:26;99128.81;;;20.67;51.00
39487;BME280;25173;50.430;18.926;2023-05-19T15:16:45;99135.81;;;20.64;51.11
39487;BME280;25173;50.430;18.926;2023-05-19T15:20:04;99127.81;;;20.63;51.43
39487;BME280;25173;50.430;18.926;2023-05-19T15:23:24;99118.81;;;20.57;51.32
39487;BME280;25173;50.430;18.926;2023-05-19T15:26:43;99115.38;;;20.51;51.32
39487;BME280;25173;50.430;18.926;2023-05-19T15:30:04;99125.44;;;20.47;51.38
39487;BME280;25173;50.430;18.926;2023-05-19T15:33:23;99112.84;;;20.41;51.44
39487;BME280;25173;50.430;18.926;2023-05-19T15:36:42;99108.75;;;20.39;51.72
39487;BME280;25173;50.430;18.926;2023-05-19T15:40:02;99108.91;;;20.34;51.71
39487;BME280;25173;50.430;18.926;2023-05-19T15:43:22;99116.38;;;20.33;51.43
39487;BME280;25173;50.430;18.926;2023-05-19T15:46:41;99115.16;;;20.26;51.82
39487;BME280;25173;50.430;18.926;2023-05-19T15:50:01;99117.47;;;20.10;52.40
39487;BME280;25173;50.430;18.926;2023-05-19T15:53:20;99117.38;;;20.01;52.29
39487;BME280;25173;50.430;18.926;2023-05-19T15:56:39;99114.69;;;19.88;52.55
39487;BME280;25173;50.430;18.926;2023-05-19T15:59:58;99112.81;;;19.61;52.96
39487;BME280;25173;50.430;18.926;2023-05-19T16:03:17;99115.97;;;19.41;53.62
39487;BME280;25173;50.430;18.926;2023-05-19T16:06:37;99109.84;;;19.30;53.78
39487;BME280;25173;50.430;18.926;2023-05-19T16:09:56;99107.69;;;19.13;54.00
39487;BME280;25173;50.430;18.926;2023-05-19T16:13:15;99115.28;;;19.08;54.46
39487;BME280;25173;50.430;18.926;2023-05-19T16:16:15;99110.88;;;19.07;54.35
39487;BME280;25173;50.430;18.926;2023-05-19T16:19:16;99117.72;;;19.09;54.50
39487;BME280;25173;50.430;18.926;2023-05-19T16:22:16;99120.19;;;19.11;54.32
39487;BME280;25173;50.430;18.926;2023-05-19T16:25:17;99124.59;;;19.12;54.59
39487;BME280;25173;50.430;18.926;2023-05-19T16:28:19;99133.19;;;19.10;54.38
39487;BME280;25173;50.430;18.926;2023-05-19T16:31:19;99126.50;;;18.97;54.47
39487;BME280;25173;50.430;18.926;2023-05-19T16:34:20;99129.66;;;18.91;54.91
39487;BME280;25173;50.430;18.926;2023-05-19T16:37:20;99137.53;;;18.84;55.10
39487;BME280;25173;50.430;18.926;2023-05-19T16:40:21;99131.81;;;18.80;55.45
39487;BME280;25173;50.430;18.926;2023-05-19T16:43:22;99130.78;;;18.76;55.51
39487;BME280;25173;50.430;18.926;2023-05-19T16:46:22;99134.84;;;18.65;55.40
39487;BME280;25173;50.430;18.926;2023-05-19T16:49:23;99125.84;;;18.59;55.71
39487;BME280;25173;50.430;18.926;2023-05-19T16:52:23;99133.31;;;18.59;55.95
39487;BME280;25173;50.430;18.926;2023-05-19T16:55:24;99128.66;;;18.54;56.00